Time;durP1;ratioP1;P1;durP2;ratioP2;P2;SDS_P1;SDS_P2;PMS_P1;PMS_P2;Temp;Humidity;BMP_temperature;BMP_pressure;BME280_temperature;BME280_humidity;BME280_pressure;Samples;Min_cycle;Max_cycle;Signal;HPM_P1;HPM_P2
2022/10/18 00:02:24;;;;;;;5.95;0.90;;;;;;;10.02;69.28;101062.13;5043882;28;20099;-40
2022/10/18 00:04:51;;;;;;;5.70;1.30;;;;;;;9.99;68.94;101064.66;5044870;28;20048;-41
2022/10/18 00:07:17;;;;;;;9.32;2.15;;;;;;;9.97;68.74;101063.75;5046661;28;20076;-41
2022/10/18 00:09:44;;;;;;;7.85;1.92;;;;;;;9.94;68.84;101070.59;5041370;28;20048;-41
2022/10/18 00:12:11;;;;;;;5.75;1.35;;;;;;;9.90;69.59;101080.91;5044730;28;20065;-41
2022/10/18 00:14:38;;;;;;;6.25;2.40;;;;;;;9.89;69.42;101080.88;5045685;28;20612;-41
2022/10/18 00:17:04;;;;;;;4.97;1.05;;;;;;;9.84;69.41;101078.22;5046241;28;20175;-41
2022/10/18 00:19:31;;;;;;;10.60;1.48;;;;;;;9.81;69.24;101083.34;5042635;28;20049;-41
2022/10/18 00:21:58;;;;;;;4.03;0.80;;;;;;;9.76;69.57;101080.66;5043928;28;20045;-41
2022/10/18 00:24:24;;;;;;;3.30;1.23;;;;;;;9.74;69.38;101082.38;5043316;28;20049;-41
2022/10/18 00:26:51;;;;;;;4.55;1.33;;;;;;;9.73;69.76;101085.78;5044427;28;20056;-40
2022/10/18 00:29:18;;;;;;;9.00;1.85;;;;;;;9.72;69.78;101078.88;5047207;28;20036;-39
2022/10/18 00:31:44;;;;;;;9.27;2.15;;;;;;;9.72;69.82;101076.28;5044210;28;20098;-40
2022/10/18 00:34:14;;;;;;;9.13;1.17;;;;;;;9.71;69.63;101077.13;5045505;28;20083;-41
2022/10/18 00:36:42;;;;;;;6.03;0.80;;;;;;;9.70;70.20;101075.41;5044761;28;20057;-41
2022/10/18 00:39:15;;;;;;;8.25;0.93;;;;;;;9.69;69.71;101078.81;5034709;28;20064;-41
2022/10/18 00:41:42;;;;;;;6.20;1.75;;;;;;;9.70;70.12;101070.22;5027661;28;20044;-41
2022/10/18 00:46:47;;;;;;;6.93;1.08;;;;;;;9.71;70.17;101071.97;5096750;27;20202;-41
2022/10/18 00:49:19;;;;;;;2.67;0.73;;;;;;;9.69;70.08;101073.63;5052779;28;20132;-40
2022/10/18 00:51:52;;;;;;;3.42;1.05;;;;;;;9.68;70.64;101074.50;5058497;28;20131;-41
2022/10/18 00:54:19;;;;;;;3.25;1.00;;;;;;;9.66;70.01;101078.75;5042261;28;20052;-41
2022/10/18 00:56:46;;;;;;;8.10;1.10;;;;;;;9.65;70.53;101077.03;5061204;28;20049;-40
2022/10/18 00:59:14;;;;;;;5.97;0.70;;;;;;;9.64;70.13;101072.69;5056148;28;20077;-40
2022/10/18 01:01:41;;;;;;;3.25;0.95;;;;;;;9.62;70.85;101076.97;5056519;28;20508;-40
2022/10/18 01:04:08;;;;;;;6.55;0.93;;;;;;;9.60;70.78;101089.00;5056740;28;20098;-42
2022/10/18 01:06:54;;;;;;;8.15;1.08;;;;;;;9.54;70.66;101088.88;5058554;28;20052;-41
2022/10/18 01:17:26;;;;;;;3.30;1.45;;;;;;;9.41;70.17;101114.53;5108057;27;20144;-41
2022/10/18 01:20:32;;;;;;;7.03;1.35;;;;;;;9.32;69.98;101119.53;5066143;28;20048;-40
2022/10/18 01:23:07;;;;;;;8.65;2.17;;;;;;;9.31;70.56;101116.06;5054887;28;20044;-41
2022/10/18 01:25:46;;;;;;;6.75;1.98;;;;;;;9.31;70.60;101122.94;5074433;28;20041;-41
2022/10/18 01:31:20;;;;;;;6.90;3.17;;;;;;;9.26;70.41;101128.88;5043720;27;20711;-42
2022/10/18 01:34:08;;;;;;;6.72;2.45;;;;;;;9.20;70.12;101133.06;5000104;28;20502;-42
2022/10/18 01:36:39;;;;;;;9.98;2.33;;;;;;;9.23;70.38;101146.91;4985495;28;20077;-41
2022/10/18 01:39:11;;;;;;;5.63;2.00;;;;;;;9.22;70.44;101142.59;4970863;28;20130;-42
2022/10/18 01:41:42;;;;;;;6.18;3.13;;;;;;;9.21;70.23;101143.44;4976616;28;20051;-42
2022/10/18 01:44:17;;;;;;;4.10;3.33;;;;;;;9.20;71.19;101136.53;4984042;28;20089;-42
2022/10/18 01:46:45;;;;;;;6.70;2.50;;;;;;;9.19;70.39;101137.34;4981677;28;20101;-42
2022/10/18 01:49:12;;;;;;;4.95;2.20;;;;;;;9.18;70.83;101148.53;4980952;28;20046;-41
2022/10/18 01:51:39;;;;;;;10.02;2.28;;;;;;;9.16;70.56;101145.06;4983943;28;20051;-40
2022/10/18 01:54:06;;;;;;;10.15;2.28;;;;;;;9.13;70.94;101139.84;4978621;28;20078;-42
2022/10/18 02:04:53;;;;;;;5.53;1.33;;;;;;;9.02;70.66;101156.81;5078693;27;20462;-42
2022/10/18 02:10:07;;;;;;;4.47;1.17;;;;;;;8.89;70.88;101156.56;5007536;28;20126;-42
2022/10/18 02:12:35;;;;;;;9.10;1.30;;;;;;;8.87;71.17;101165.97;4961021;28;20131;-41
2022/10/18 02:15:04;;;;;;;5.88;1.08;;;;;;;8.84;71.37;101168.47;4964842;28;20542;-42
2022/10/18 02:17:32;;;;;;;4.53;1.00;;;;;;;8.78;70.87;101164.03;4965230;28;20046;-42
2022/10/18 02:20:01;;;;;;;5.72;0.98;;;;;;;8.75;70.89;101164.00;4965133;28;20129;-40
2022/10/18 02:22:31;;;;;;;2.15;0.57;;;;;;;8.69;70.89;101169.91;4962614;28;20150;-41
2022/10/18 02:25:04;;;;;;;5.28;0.95;;;;;;;8.65;70.42;101170.63;4977485;28;20493;-46
2022/10/18 02:27:31;;;;;;;4.07;1.15;;;;;;;8.59;71.10;101167.94;4960622;28;20070;-44
2022/10/18 02:29:57;;;;;;;6.13;0.80;;;;;;;8.56;70.43;101175.59;4963451;28;20495;-41
2022/10/18 02:35:23;;;;;;;3.75;0.93;;;;;;;8.47;70.34;101168.47;5087405;27;20125;-42
2022/10/18 02:37:52;;;;;;;3.60;1.10;;;;;;;8.44;71.04;101174.44;5039875;28;20084;-41
2022/10/18 02:40:19;;;;;;;6.57;1.20;;;;;;;8.40;71.05;101172.63;5040802;28;20228;-42
2022/10/18 02:42:49;;;;;;;5.38;1.30;;;;;;;8.39;71.08;101170.88;5038322;28;20045;-40
2022/10/18 02:45:16;;;;;;;3.83;1.25;;;;;;;8.36;71.17;101169.09;5042299;28;20055;-42
2022/10/18 02:47:43;;;;;;;7.75;1.63;;;;;;;8.33;70.40;101181.94;5045847;28;20052;-41
2022/10/18 02:50:10;;;;;;;3.38;1.25;;;;;;;8.32;71.26;101180.19;5053435;28;20045;-42
2022/10/18 02:52:36;;;;;;;4.70;1.27;;;;;;;8.30;70.84;101180.97;5062882;28;20127;-41
2022/10/18 02:55:04;;;;;;;2.83;1.05;;;;;;;8.27;70.82;101181.75;5047911;28;20049;-41
2022/10/18 02:57:31;;;;;;;4.10;1.33;;;;;;;8.23;70.39;101185.97;5044055;28;20136;-41
2022/10/18 02:59:58;;;;;;;2.72;0.77;;;;;;;8.21;70.62;101187.63;5055276;28;20090;-40
2022/10/18 03:02:25;;;;;;;4.85;1.20;;;;;;;8.19;70.63;101173.84;5043976;28;20071;-40
2022/10/18 03:04:52;;;;;;;6.60;1.17;;;;;;;8.17;70.65;101175.50;5043028;28;20128;-41
2022/10/18 03:07:18;;;;;;;6.13;1.70;;;;;;;8.16;71.58;101178.91;5042760;28;20072;-41
2022/10/18 03:09:45;;;;;;;3.35;1.00;;;;;;;8.17;71.41;101177.22;5065898;28;20127;-40
2022/10/18 03:12:11;;;;;;;5.80;1.30;;;;;;;8.16;70.83;101171.19;5075535;28;20053;-41
2022/10/18 03:14:38;;;;;;;3.92;1.27;;;;;;;8.17;71.58;101180.66;5073134;28;20052;-41
2022/10/18 03:17:04;;;;;;;5.07;1.02;;;;;;;8.17;71.02;101183.22;5071959;28;20058;-41
2022/10/18 03:19:31;;;;;;;7.65;1.95;;;;;;;8.17;71.52;101180.66;5073751;28;20048;-40
2022/10/18 03:21:58;;;;;;;2.28;0.88;;;;;;;8.18;70.92;101190.13;5073996;28;20495;-39
2022/10/18 03:24:24;;;;;;;3.33;1.13;;;;;;;8.17;71.11;101178.06;5074385;28;20675;-40
2022/10/18 03:26:51;;;;;;;4.10;1.30;;;;;;;8.14;71.92;101171.97;5066502;28;20546;-41
2022/10/18 03:29:18;;;;;;;4.00;0.95;;;;;;;8.14;70.84;101174.56;5057682;28;20052;-40
2022/10/18 03:31:44;;;;;;;5.22;1.48;;;;;;;8.12;71.38;101171.94;5038003;28;20457;-42
2022/10/18 03:34:11;;;;;;;6.45;0.85;;;;;;;8.12;71.08;101177.09;5066484;28;20181;-41
2022/10/18 03:36:40;;;;;;;5.95;1.60;;;;;;;8.12;71.53;101171.03;5079013;28;20637;-41
2022/10/18 03:39:06;;;;;;;4.82;1.92;;;;;;;8.07;70.89;101174.38;5071575;28;20391;-41
2022/10/18 03:41:33;;;;;;;3.47;0.73;;;;;;;8.03;70.96;101180.31;5068745;28;20083;-48
2022/10/18 03:43:59;;;;;;;4.68;0.90;;;;;;;8.01;70.63;101173.38;5055289;28;20480;-41
2022/10/18 03:46:26;;;;;;;4.60;0.70;;;;;;;7.97;72.03;101188.75;5034156;28;20132;-41
2022/10/18 03:48:53;;;;;;;2.35;0.80;;;;;;;7.97;70.95;101183.59;5053052;28;20068;-42
2022/10/18 03:51:19;;;;;;;5.90;1.10;;;;;;;7.95;71.18;101187.84;5067664;28;20083;-42
2022/10/18 03:53:46;;;;;;;3.50;1.55;;;;;;;7.92;71.88;101179.16;5059904;28;20036;-40
2022/10/18 03:56:13;;;;;;;4.63;0.90;;;;;;;7.89;70.84;101194.53;5056146;28;20152;-41
2022/10/18 03:58:39;;;;;;;2.90;1.05;;;;;;;7.85;71.46;101193.59;5061123;28;20045;-41
2022/10/18 04:01:06;;;;;;;6.88;0.88;;;;;;;7.82;71.15;101196.09;5049675;28;20139;-41
2022/10/18 04:03:32;;;;;;;2.47;0.80;;;;;;;7.81;71.80;101186.59;5055976;28;20125;-41
2022/10/18 04:05:59;;;;;;;7.07;0.90;;;;;;;7.81;72.16;101184.88;5060539;28;20131;-42
2022/10/18 04:08:26;;;;;;;2.70;1.58;;;;;;;7.83;71.92;101197.81;5066775;28;20563;-40
2022/10/18 04:10:52;;;;;;;4.22;1.00;;;;;;;7.82;71.01;101196.09;5055193;28;20144;-40
2022/10/18 04:13:19;;;;;;;3.92;1.00;;;;;;;7.82;71.01;101193.50;5055877;28;20155;-41
2022/10/18 04:15:46;;;;;;;3.00;1.00;;;;;;;7.81;72.13;101202.94;5063316;28;20052;-40
2022/10/18 04:18:12;;;;;;;2.90;1.40;;;;;;;7.79;71.08;101209.78;5064069;28;20131;-40
2022/10/18 04:20:39;;;;;;;5.57;1.27;;;;;;;7.78;72.17;101214.88;5065173;28;20091;-40
2022/10/18 04:23:06;;;;;;;4.45;0.85;;;;;;;7.77;71.28;101220.88;5064772;28;20128;-40
2022/10/18 04:25:32;;;;;;;6.50;0.90;;;;;;;7.75;71.77;101212.22;5065278;28;20040;-40
2022/10/18 04:27:59;;;;;;;4.30;1.15;;;;;;;7.74;71.25;101205.31;5060708;28;20064;-43
2022/10/18 04:30:26;;;;;;;3.95;0.90;;;;;;;7.75;71.92;101213.09;5051281;28;20469;-41
2022/10/18 04:32:52;;;;;;;4.85;0.95;;;;;;;7.78;72.38;101217.47;5066971;28;20075;-40
2022/10/18 04:35:23;;;;;;;3.88;0.93;;;;;;;7.79;72.18;101214.94;5059408;28;20097;-41
2022/10/18 04:37:50;;;;;;;4.68;1.13;;;;;;;7.81;71.72;101217.56;5056624;28;20044;-41
2022/10/18 04:40:16;;;;;;;4.60;1.30;;;;;;;7.80;72.65;101216.66;5055872;28;20052;-40
2022/10/18 04:42:43;;;;;;;6.82;0.90;;;;;;;7.79;71.83;101208.88;5054449;28;20575;-40
2022/10/18 04:45:10;;;;;;;3.30;0.90;;;;;;;7.78;72.69;101217.47;5057789;28;20052;-41
2022/10/18 04:47:36;;;;;;;1.75;0.75;;;;;;;7.78;71.71;101212.31;5060110;28;20044;-41
2022/10/18 04:50:04;;;;;;;2.90;1.27;;;;;;;7.77;71.24;101211.41;5059405;28;20131;-40
2022/10/18 04:52:30;;;;;;;3.20;0.90;;;;;;;7.77;72.69;101226.03;5056688;28;20076;-40
2022/10/18 04:54:57;;;;;;;3.65;1.00;;;;;;;7.77;71.24;101215.72;5065135;28;20071;-40
2022/10/18 04:57:23;;;;;;;6.47;0.98;;;;;;;7.77;72.27;101215.72;5054040;28;20140;-40
2022/10/18 04:59:50;;;;;;;5.90;0.77;;;;;;;7.79;72.17;101208.88;5058736;28;20048;-40
2022/10/18 05:02:16;;;;;;;2.03;0.77;;;;;;;7.77;73.07;101213.16;5054414;28;20123;-41
2022/10/18 05:04:43;;;;;;;13.10;1.63;;;;;;;7.78;71.94;101222.63;5059500;28;20041;-41
2022/10/18 05:07:10;;;;;;;4.85;0.70;;;;;;;7.76;71.96;101225.16;5055475;28;20088;-41
2022/10/18 05:09:36;;;;;;;4.43;0.80;;;;;;;7.75;72.48;101223.41;5060103;28;20127;-40
2022/10/18 05:12:03;;;;;;;5.07;1.15;;;;;;;7.73;72.75;101225.06;5063083;28;20071;-40
2022/10/18 05:14:30;;;;;;;3.38;1.17;;;;;;;7.71;72.77;101222.44;5065100;28;20124;-40
2022/10/18 05:16:56;;;;;;;2.75;0.73;;;;;;;7.70;72.17;101231.03;5051586;28;20132;-40
2022/10/18 05:19:23;;;;;;;4.22;1.20;;;;;;;7.69;73.18;101226.69;5056181;28;20044;-42
2022/10/18 05:21:50;;;;;;;6.22;1.17;;;;;;;7.67;72.42;101230.94;5048500;28;20049;-40
2022/10/18 05:24:16;;;;;;;6.30;1.33;;;;;;;7.66;72.53;101221.44;5063046;28;20132;-40
2022/10/18 05:26:43;;;;;;;3.65;1.23;;;;;;;7.68;72.27;101222.38;5058135;28;20547;-40
2022/10/18 05:29:10;;;;;;;3.22;0.90;;;;;;;7.68;71.98;101227.53;5059692;28;20056;-41
2022/10/18 05:31:37;;;;;;;5.53;0.77;;;;;;;7.70;72.13;101225.84;5064057;28;20080;-39
2022/10/18 05:34:03;;;;;;;2.10;1.20;;;;;;;7.71;73.27;101227.59;5057268;28;20123;-41
2022/10/18 05:36:30;;;;;;;4.90;0.95;;;;;;;7.71;72.31;101226.75;5056968;28;20041;-42
2022/10/18 05:38:57;;;;;;;4.43;1.25;;;;;;;7.72;73.13;101234.53;5053815;28;20135;-40
2022/10/18 05:41:30;;;;;;;3.47;1.17;;;;;;;7.75;73.50;101228.56;5057796;28;20094;-40
2022/10/18 05:43:56;;;;;;;8.60;0.85;;;;;;;7.77;73.54;101239.78;5064876;28;20047;-41
2022/10/18 05:46:24;;;;;;;3.65;1.25;;;;;;;7.78;72.97;101244.16;5062138;28;20523;-41
2022/10/18 05:48:50;;;;;;;4.85;1.00;;;;;;;7.77;73.33;101241.53;5062442;28;20131;-41
2022/10/18 05:51:17;;;;;;;3.20;0.82;;;;;;;7.77;73.04;101236.38;5059978;28;20128;-42
2022/10/18 05:53:44;;;;;;;4.30;0.88;;;;;;;7.75;73.74;101243.16;5062129;28;20337;-41
2022/10/18 05:56:11;;;;;;;5.65;1.13;;;;;;;7.71;72.96;101237.91;5045769;28;20127;-41
2022/10/18 05:58:38;;;;;;;4.15;0.75;;;;;;;7.70;72.17;101241.34;5060598;28;20040;-40
2022/10/18 06:01:06;;;;;;;7.95;0.75;;;;;;;7.68;72.50;101242.13;5061063;28;20098;-40
2022/10/18 06:03:33;;;;;;;4.55;1.13;;;;;;;7.65;73.56;101248.06;5060043;28;20140;-41
2022/10/18 06:06:05;;;;;;;4.00;1.08;;;;;;;7.61;72.29;101241.09;5060002;28;20136;-40
2022/10/18 06:08:33;;;;;;;3.10;1.33;;;;;;;7.56;73.59;101237.47;5052110;28;20098;-39
2022/10/18 06:11:06;;;;;;;6.50;0.80;;;;;;;7.52;73.39;101244.25;5059253;28;20127;-42
2022/10/18 06:13:33;;;;;;;9.10;1.23;;;;;;;7.52;72.78;101244.25;5052093;28;20080;-40
2022/10/18 06:15:59;;;;;;;5.00;1.17;;;;;;;7.53;73.74;101250.31;5060069;28;20119;-41
2022/10/18 06:18:26;;;;;;;3.08;0.70;;;;;;;7.52;73.60;101256.28;5062361;28;20045;-41
2022/10/18 06:20:57;;;;;;;2.65;0.90;;;;;;;7.51;73.12;101254.53;5058351;28;20557;-40
2022/10/18 06:23:26;;;;;;;2.53;1.10;;;;;;;7.49;73.25;101262.22;5058144;28;20124;-40
2022/10/18 06:25:57;;;;;;;5.57;1.95;;;;;;;7.46;72.57;101263.00;5054806;28;20106;-41
2022/10/18 06:28:24;;;;;;;4.85;1.20;;;;;;;7.45;73.18;101266.41;5064951;28;20060;-41
2022/10/18 06:30:51;;;;;;;4.28;2.33;;;;;;;7.43;73.29;101270.63;5059716;28;20404;-39
2022/10/18 06:33:18;;;;;;;6.32;0.93;;;;;;;7.40;73.07;101267.97;5060538;28;20049;-41
2022/10/18 06:35:54;;;;;;;2.25;0.90;;;;;;;7.39;72.55;101263.66;5057160;28;20121;-42
2022/10/18 06:38:20;;;;;;;4.82;1.42;;;;;;;7.40;73.69;101267.97;5058449;28;20556;-41
2022/10/18 06:40:47;;;;;;;5.35;1.23;;;;;;;7.40;73.12;101270.53;5050787;28;20223;-50
2022/10/18 06:43:14;;;;;;;7.57;1.50;;;;;;;7.36;73.30;101271.28;5060627;28;20488;-42
2022/10/18 06:45:47;;;;;;;20.95;1.63;;;;;;;7.25;73.21;101285.53;5060781;28;20047;-40
2022/10/18 06:48:14;;;;;;;20.17;1.40;;;;;;;7.13;73.29;101279.16;5048132;28;20095;-41
2022/10/18 06:50:41;;;;;;;6.78;1.20;;;;;;;7.05;73.06;101280.63;5056915;28;20052;-41
2022/10/18 06:53:08;;;;;;;5.32;1.05;;;;;;;7.00;73.01;101277.94;5047079;28;20118;-41
2022/10/18 06:55:35;;;;;;;2.15;0.93;;;;;;;6.97;72.33;101282.09;5056771;28;20601;-40
2022/10/18 06:58:02;;;;;;;7.43;1.42;;;;;;;6.93;73.27;101282.00;5061187;28;20098;-41
2022/10/18 07:00:28;;;;;;;3.20;1.23;;;;;;;6.93;72.86;101291.44;5060580;28;20075;-40
2022/10/18 07:02:57;;;;;;;4.18;0.82;;;;;;;6.95;72.70;101294.94;5052353;28;20068;-41
2022/10/18 07:05:23;;;;;;;3.33;1.40;;;;;;;6.98;73.14;101295.03;5057681;28;20522;-39
2022/10/18 07:07:50;;;;;;;3.95;1.92;;;;;;;6.99;73.27;101290.75;5061319;28;20419;-40
2022/10/18 07:10:22;;;;;;;32.03;1.75;;;;;;;7.02;73.23;101296.00;5062799;28;20049;-41
2022/10/18 07:12:49;;;;;;;14.80;1.38;;;;;;;7.02;73.73;101301.16;5056161;28;20048;-41
2022/10/18 07:15:22;;;;;;;5.05;1.27;;;;;;;6.98;74.02;101305.34;5055162;28;20063;-41
2022/10/18 07:17:49;;;;;;;3.65;1.65;;;;;;;7.00;72.45;101314.00;5057874;28;20064;-39
2022/10/18 07:20:16;;;;;;;5.63;1.60;;;;;;;7.04;72.96;101312.38;5061611;28;20495;-40
2022/10/18 07:22:43;;;;;;;3.20;1.50;;;;;;;7.06;74.07;101309.03;5053808;28;20488;-40
2022/10/18 07:25:10;;;;;;;5.03;1.30;;;;;;;7.11;74.25;101306.59;5066490;28;20648;-40
2022/10/18 07:27:39;;;;;;;7.70;2.17;;;;;;;7.17;72.89;101304.22;5064943;28;20107;-41
2022/10/18 07:30:08;;;;;;;9.07;1.80;;;;;;;7.26;74.07;101323.38;5054812;28;20159;-39
2022/10/18 07:32:35;;;;;;;7.32;1.58;;;;;;;7.30;74.17;101331.25;5056814;28;20066;-41
2022/10/18 07:35:02;;;;;;;9.40;1.98;;;;;;;7.37;74.05;101324.59;5063074;28;20132;-40
2022/10/18 07:37:30;;;;;;;4.50;1.60;;;;;;;7.72;73.90;101322.22;5041109;28;20053;-41
2022/10/18 07:39:57;;;;;;;6.07;2.22;;;;;;;8.36;72.99;101316.25;5059288;28;20525;-41
2022/10/18 07:42:24;;;;;;;5.47;2.03;;;;;;;8.81;71.68;101323.44;5055854;28;20064;-41
2022/10/18 07:44:51;;;;;;;4.90;2.25;;;;;;;9.08;71.36;101332.69;5057671;28;20133;-41
2022/10/18 07:47:18;;;;;;;4.93;1.88;;;;;;;9.24;70.85;101337.41;5066278;28;20536;-42
2022/10/18 07:49:44;;;;;;;3.65;1.65;;;;;;;9.28;70.68;101342.66;5055663;28;20552;-40
2022/10/18 07:52:11;;;;;;;5.88;2.40;;;;;;;9.32;71.62;101352.22;5056841;28;20068;-42
2022/10/18 07:54:38;;;;;;;6.55;1.75;;;;;;;9.43;70.88;101350.75;5057297;28;20048;-41
2022/10/18 07:57:04;;;;;;;4.40;2.13;;;;;;;9.54;71.29;101357.88;5052891;28;20059;-39
2022/10/18 07:59:31;;;;;;;5.53;2.08;;;;;;;9.66;72.01;101363.31;5062430;28;20500;-40
2022/10/18 08:01:58;;;;;;;8.35;2.22;;;;;;;9.88;71.45;101376.72;5066446;28;20135;-41
2022/10/18 08:04:24;;;;;;;10.70;3.42;;;;;;;10.00;71.96;101379.56;5061411;28;20048;-41
2022/10/18 08:06:51;;;;;;;8.20;3.72;;;;;;;10.15;73.44;101383.34;5056883;28;20127;-40
2022/10/18 08:09:17;;;;;;;10.55;3.80;;;;;;;10.32;73.75;101385.38;5058042;28;20049;-40
2022/10/18 08:11:44;;;;;;;9.98;4.40;;;;;;;10.51;74.88;101386.66;5055442;28;20088;-41
2022/10/18 08:14:11;;;;;;;7.68;3.25;;;;;;;10.88;75.73;101396.84;5060129;28;20049;-42
2022/10/18 08:16:37;;;;;;;8.18;2.63;;;;;;;11.54;75.63;101397.03;5064733;28;20037;-42
2022/10/18 08:19:04;;;;;;;4.75;2.15;;;;;;;12.16;74.55;101399.63;5056031;28;20080;-42
2022/10/18 08:21:30;;;;;;;3.83;1.75;;;;;;;12.51;73.73;101406.09;5054348;28;20102;-41
2022/10/18 08:23:57;;;;;;;7.20;2.55;;;;;;;12.76;72.08;101415.88;5057700;28;20044;-43
2022/10/18 08:26:24;;;;;;;6.25;1.92;;;;;;;12.91;73.16;101426.44;5058652;28;20076;-42
2022/10/18 08:28:51;;;;;;;4.63;1.95;;;;;;;13.05;71.89;101429.16;5061710;28;20076;-41
2022/10/18 08:31:35;;;;;;;4.47;1.80;;;;;;;13.25;72.34;101425.88;5062782;28;20049;-41
2022/10/18 08:34:02;;;;;;;3.75;2.17;;;;;;;13.74;72.75;101424.50;5062400;28;20646;-43
2022/10/18 08:36:28;;;;;;;4.70;1.73;;;;;;;14.73;70.27;101431.00;5057345;28;20037;-42
2022/10/18 08:38:55;;;;;;;5.47;1.75;;;;;;;15.80;67.81;101441.47;5061174;28;20124;-42
2022/10/18 08:44:19;;;;;;;4.65;2.75;;;;;;;17.75;63.32;101442.06;5130006;27;20449;-43
2022/10/18 08:46:50;;;;;;;6.63;2.53;;;;;;;18.39;62.17;101433.47;5082162;28;20135;-42
2022/10/18 08:49:25;;;;;;;6.30;2.75;;;;;;;19.23;61.30;101427.03;5070049;28;20095;-42
2022/10/18 08:51:52;;;;;;;5.93;2.42;;;;;;;20.07;59.10;101437.78;5080475;28;20055;-42
2022/10/18 08:57:00;;;;;;;5.75;1.30;;;;;;;21.74;55.56;101439.16;5074638;27;20771;-42
2022/10/18 08:59:36;;;;;;;4.43;1.20;;;;;;;22.58;54.98;101442.03;5002371;28;20093;-42
2022/10/18 09:02:33;;;;;;;4.35;1.52;;;;;;;23.46;53.52;101444.50;5021490;28;20584;-48
2022/10/18 09:13:55;;;;;;;3.13;1.00;;;;;;;25.84;47.95;101460.88;5041826;27;20212;-44
2022/10/18 09:22:00;;;;;;;5.63;1.48;;;;;;;27.34;44.36;101461.78;5096101;27;21080;-44
2022/10/18 09:27:15;;;;;;;6.82;1.20;;;;;;;28.15;42.40;101465.56;5086166;27;20390;-43
2022/10/18 09:35:23;;;;;;;5.63;1.25;;;;;;;29.20;41.17;101465.91;5117685;27;20131;-45
2022/10/18 09:37:54;;;;;;;5.45;1.30;;;;;;;29.50;40.21;101474.81;5091424;28;20055;-44
2022/10/18 09:40:27;;;;;;;2.72;0.80;;;;;;;29.70;39.95;101478.97;5073955;28;20135;-46
2022/10/18 09:45:34;;;;;;;3.90;0.75;;;;;;;30.23;39.44;101470.38;5090337;27;20142;-45
2022/10/18 09:48:22;;;;;;;4.45;1.48;;;;;;;30.59;39.43;101464.59;5047914;28;20405;-47
2022/10/18 09:56:15;;;;;;;3.45;0.93;;;;;;;30.97;36.88;101469.19;5079975;28;20229;-44
2022/10/18 10:01:23;;;;;;;4.63;1.30;;;;;;;31.21;36.57;101471.19;5041866;27;20406;-45
2022/10/18 10:03:51;;;;;;;3.72;0.80;;;;;;;31.30;36.23;101478.56;5027234;28;20093;-46
2022/10/18 10:11:39;;;;;;;4.68;2.33;;;;;;;31.59;34.79;101484.72;5106210;27;20493;-44
2022/10/18 10:14:11;;;;;;;4.45;1.15;;;;;;;31.51;34.53;101477.25;5021244;28;20057;-50
2022/10/18 10:16:47;;;;;;;4.38;1.08;;;;;;;31.46;35.12;101474.00;5023012;28;20045;-45
2022/10/18 10:19:19;;;;;;;3.35;1.33;;;;;;;31.33;35.02;101480.22;5040487;28;20045;-44
2022/10/18 10:21:49;;;;;;;3.80;1.23;;;;;;;31.27;34.10;101481.47;5074525;28;20136;-45
2022/10/18 10:24:22;;;;;;;5.45;1.23;;;;;;;31.21;34.45;101475.69;5041730;28;20099;-50
2022/10/18 10:27:15;;;;;;;5.00;1.10;;;;;;;31.17;34.49;101470.53;5043674;28;21507;-48
2022/10/18 10:32:22;;;;;;;3.13;1.55;;;;;;;30.89;33.68;101483.09;5115169;27;20147;-44
2022/10/18 10:34:50;;;;;;;6.20;1.98;;;;;;;30.62;33.77;101485.75;5024474;28;20041;-47
2022/10/18 10:37:35;;;;;;;3.83;1.90;;;;;;;30.27;33.73;101482.63;5022323;28;20141;-47
2022/10/18 10:40:14;;;;;;;2.83;1.95;;;;;;;29.69;33.84;101471.94;5037748;28;20045;-44
2022/10/18 10:45:37;;;;;;;3.42;0.75;;;;;;;28.09;35.32;101484.53;5073589;27;20144;-49
2022/10/18 10:48:15;;;;;;;2.15;0.30;;;;;;;26.87;34.61;101473.84;5017988;28;20515;-45
2022/10/18 10:50:53;;;;;;;5.75;0.80;;;;;;;26.01;36.25;101472.50;5013166;28;20069;-47
2022/10/18 10:53:43;;;;;;;4.05;0.55;;;;;;;25.36;37.71;101453.16;5031733;28;20065;-46
2022/10/18 10:56:19;;;;;;;4.03;1.25;;;;;;;24.69;38.75;101462.97;5017999;28;20100;-48
2022/10/18 10:58:46;;;;;;;5.07;0.60;;;;;;;24.24;39.40;101465.53;5016424;28;20481;-46
2022/10/18 11:01:31;;;;;;;2.40;0.73;;;;;;;23.75;39.76;101458.50;5018245;28;20046;-44
2022/10/18 11:04:01;;;;;;;3.30;1.27;;;;;;;23.53;40.23;101450.44;5016329;28;21298;-45
2022/10/18 11:06:52;;;;;;;2.72;1.08;;;;;;;23.18;41.01;101453.34;5015603;28;20129;-45
2022/10/18 11:09:27;;;;;;;3.90;0.70;;;;;;;23.02;40.79;101451.22;5017865;28;20527;-44
2022/10/18 11:12:02;;;;;;;2.28;0.40;;;;;;;22.73;40.66;101455.69;5032893;28;20132;-46
2022/10/18 11:14:36;;;;;;;1.02;0.57;;;;;;;22.49;40.46;101444.91;5012248;28;20145;-43
2022/10/18 11:22:24;;;;;;;1.55;1.45;;;;;;;21.78;40.66;101451.34;5038921;27;20225;-45
2022/10/18 11:24:51;;;;;;;;;;;;;;;21.31;42.47;101446.41;4999911;28;20141;-45
2022/10/18 11:30:33;;;;;;;1.77;0.43;;;;;;;20.98;41.42;101439.31;5090357;27;20432;-43
2022/10/18 11:33:24;;;;;;;2.47;0.60;;;;;;;20.77;41.74;101438.03;5031998;28;20041;-44
2022/10/18 11:39:20;;;;;;;2.03;0.55;;;;;;;20.44;42.41;101422.97;5108072;27;20138;-43
2022/10/18 11:53:32;;;;;;;3.13;0.60;;;;;;;19.78;44.03;101398.00;5082865;27;20129;-44
2022/10/18 11:56:28;;;;;;;2.20;0.40;;;;;;;19.69;43.83;101408.66;5035794;28;20224;-44
2022/10/18 11:59:25;;;;;;;2.28;0.82;;;;;;;19.57;43.48;101404.53;5053818;28;20477;-44
2022/10/18 12:04:38;;;;;;;2.38;0.47;;;;;;;19.40;43.61;101412.72;5079189;27;20411;-41
2022/10/18 12:07:32;;;;;;;1.83;0.65;;;;;;;19.32;43.45;101417.25;5031730;28;20509;-45
2022/10/18 12:10:00;;;;;;;1.98;0.20;;;;;;;19.23;44.07;101411.25;5033115;28;20743;-43
2022/10/18 12:12:31;;;;;;;1.50;0.40;;;;;;;19.15;43.94;101407.88;5037704;28;20460;-41
2022/10/18 12:15:02;;;;;;;1.13;0.45;;;;;;;19.10;44.09;101407.09;5057656;28;20077;-46
2022/10/18 12:20:13;;;;;;;3.72;1.58;;;;;;;18.97;44.80;101409.91;5100207;27;20121;-44
2022/10/18 12:25:23;;;;;;;4.07;0.73;;;;;;;18.82;45.69;101400.53;5021713;27;20466;-42
2022/10/18 12:33:20;;;;;;;3.55;0.30;;;;;;;18.76;45.79;101384.84;5054132;28;20136;-43
2022/10/18 12:38:39;;;;;;;2.83;0.55;;;;;;;18.57;45.41;101381.63;5109955;27;20222;-40
2022/10/18 12:41:06;;;;;;;5.55;1.23;;;;;;;18.53;45.58;101385.19;5040738;28;20049;-41
2022/10/18 12:43:37;;;;;;;1.23;0.50;;;;;;;18.49;44.88;101382.63;5041822;28;20084;-43
2022/10/18 12:46:06;;;;;;;2.80;0.57;;;;;;;18.40;44.74;101377.50;5040800;28;20045;-42
2022/10/18 12:48:44;;;;;;;2.33;0.50;;;;;;;18.40;44.99;101387.16;5043333;28;20272;-42
2022/10/18 13:09:43;;;;;;;3.42;0.73;;;;;;;19.27;45.24;101394.56;5090534;27;20138;-44
2022/10/18 13:15:22;;;;;;;3.28;0.70;;;;;;;19.46;44.72;101380.22;5092303;27;20140;-43
2022/10/18 13:20:40;;;;;;;5.28;1.67;;;;;;;19.29;45.66;101384.03;5112088;27;20133;-43
2022/10/18 13:26:11;;;;;;;5.28;2.13;;;;;;;18.82;47.47;101384.78;5133569;27;20136;-44
2022/10/18 13:37:03;;;;;;;5.15;2.20;;;;;;;18.17;49.51;101386.53;5057163;27;20138;-42
2022/10/18 13:39:31;;;;;;;5.28;2.78;;;;;;;18.08;49.84;101397.13;5040657;28;20041;-42
2022/10/18 13:44:38;;;;;;;6.25;0.93;;;;;;;17.97;50.13;101379.78;5096160;27;20138;-45
2022/10/18 13:50:20;;;;;;;5.28;1.52;;;;;;;17.86;50.19;101372.06;5133701;27;20124;-42
2022/10/18 14:04:16;;;;;;;3.67;0.93;;;;;;;17.57;50.22;101365.38;5067761;27;20698;-43
2022/10/18 14:06:45;;;;;;;2.78;0.70;;;;;;;17.55;50.41;101368.91;5023494;28;20494;-42
2022/10/18 14:09:23;;;;;;;7.50;1.20;;;;;;;17.55;50.99;101361.03;5014969;28;20773;-42
2022/10/18 14:12:48;;;;;;;5.45;0.93;;;;;;;17.43;49.96;101352.44;5001391;28;20600;-43
2022/10/18 14:15:22;;;;;;;2.17;1.80;;;;;;;17.42;50.28;101350.72;5019231;28;20491;-42
2022/10/18 14:17:57;;;;;;;5.05;0.70;;;;;;;17.41;49.37;101350.72;5018428;28;20129;-42
2022/10/18 14:20:28;;;;;;;2.85;0.50;;;;;;;17.37;49.88;101349.03;5023384;28;20046;-42
2022/10/18 14:23:21;;;;;;;1.75;0.70;;;;;;;17.29;49.76;101355.19;5035504;28;20054;-42
2022/10/18 14:25:48;;;;;;;3.75;0.70;;;;;;;17.26;49.97;101354.38;5001962;28;20125;-43
2022/10/18 14:28:17;;;;;;;3.00;0.52;;;;;;;17.24;49.36;101350.88;5018237;28;20453;-42
2022/10/18 14:33:41;;;;;;;5.22;0.50;;;;;;;17.11;49.81;101340.53;5069505;27;20131;-43
2022/10/18 14:36:13;;;;;;;2.65;0.43;;;;;;;17.14;50.12;101344.88;5034812;28;20049;-43
2022/10/18 14:39:00;;;;;;;2.78;0.30;;;;;;;17.06;50.66;101350.19;5040421;28;20417;-40